sensor_id;sensor_type;location;lat;lon;timestamp;P1;durP1;ratioP1;P2;durP2;ratioP2
35022;SDS011;21214;44.912;8.204;2024-02-26T00:02:22;12.00;;;10.80;;
35022;SDS011;21214;44.912;8.204;2024-02-26T00:04:48;11.90;;;10.38;;
35022;SDS011;21214;44.912;8.204;2024-02-26T00:07:15;11.80;;;10.68;;
35022;SDS011;21214;44.912;8.204;2024-02-26T00:09:41;12.88;;;11.68;;
35022;SDS011;21214;44.912;8.204;2024-02-26T00:12:06;12.10;;;10.98;;
35022;SDS011;21214;44.912;8.204;2024-02-26T00:14:32;12.38;;;11.18;;
35022;SDS011;21214;44.912;8.204;2024-02-26T00:16:58;13.15;;;11.93;;
35022;SDS011;21214;44.912;8.204;2024-02-26T00:19:23;12.82;;;11.55;;
35022;SDS011;21214;44.912;8.204;2024-02-26T00:21:49;13.60;;;12.15;;
35022;SDS011;21214;44.912;8.204;2024-02-26T00:24:14;14.70;;;12.27;;
35022;SDS011;21214;44.912;8.204;2024-02-26T00:26:40;13.68;;;12.50;;
35022;SDS011;21214;44.912;8.204;2024-02-26T00:29:06;12.10;;;11.00;;
35022;SDS011;21214;44.912;8.204;2024-02-26T00:31:31;13.77;;;12.32;;
35022;SDS011;21214;44.912;8.204;2024-02-26T00:33:57;13.02;;;11.77;;
35022;SDS011;21214;44.912;8.204;2024-02-26T00:36:22;12.57;;;11.23;;
35022;SDS011;21214;44.912;8.204;2024-02-26T00:38:48;13.15;;;11.95;;
35022;SDS011;21214;44.912;8.204;2024-02-26T00:41:16;12.95;;;11.65;;
35022;SDS011;21214;44.912;8.204;2024-02-26T00:43:42;13.52;;;12.23;;
35022;SDS011;21214;44.912;8.204;2024-02-26T00:46:08;13.52;;;12.35;;
35022;SDS011;21214;44.912;8.204;2024-02-26T00:48:34;12.15;;;11.05;;
35022;SDS011;21214;44.912;8.204;2024-02-26T00:50:59;13.23;;;12.02;;
35022;SDS011;21214;44.912;8.204;2024-02-26T00:53:25;13.32;;;12.02;;
35022;SDS011;21214;44.912;8.204;2024-02-26T00:55:51;14.07;;;12.57;;
35022;SDS011;21214;44.912;8.204;2024-02-26T00:58:16;13.02;;;11.80;;
35022;SDS011;21214;44.912;8.204;2024-02-26T01:00:42;13.50;;;12.20;;
35022;SDS011;21214;44.912;8.204;2024-02-26T01:03:07;15.52;;;12.88;;
35022;SDS011;21214;44.912;8.204;2024-02-26T01:05:33;13.25;;;12.10;;
35022;SDS011;21214;44.912;8.204;2024-02-26T01:07:59;14.88;;;13.27;;
35022;SDS011;21214;44.912;8.204;2024-02-26T01:10:24;13.35;;;12.05;;
35022;SDS011;21214;44.912;8.204;2024-02-26T01:12:50;13.90;;;12.57;;
35022;SDS011;21214;44.912;8.204;2024-02-26T01:15:15;14.05;;;12.65;;
35022;SDS011;21214;44.912;8.204;2024-02-26T01:17:42;13.82;;;12.43;;
35022;SDS011;21214;44.912;8.204;2024-02-26T01:20:08;14.65;;;13.15;;
35022;SDS011;21214;44.912;8.204;2024-02-26T01:22:34;14.43;;;12.93;;
35022;SDS011;21214;44.912;8.204;2024-02-26T01:24:59;14.52;;;13.13;;
35022;SDS011;21214;44.912;8.204;2024-02-26T01:27:25;14.10;;;12.90;;
35022;SDS011;21214;44.912;8.204;2024-02-26T01:29:52;14.98;;;13.45;;
35022;SDS011;21214;44.912;8.204;2024-02-26T01:32:18;13.70;;;12.40;;
35022;SDS011;21214;44.912;8.204;2024-02-26T01:34:44;14.85;;;13.38;;
35022;SDS011;21214;44.912;8.204;2024-02-26T01:37:10;15.20;;;13.32;;
35022;SDS011;21214;44.912;8.204;2024-02-26T01:39:36;14.52;;;13.10;;
35022;SDS011;21214;44.912;8.204;2024-02-26T01:42:02;14.20;;;12.80;;
35022;SDS011;21214;44.912;8.204;2024-02-26T01:44:27;14.95;;;13.43;;
35022;SDS011;21214;44.912;8.204;2024-02-26T01:46:53;14.68;;;13.23;;
35022;SDS011;21214;44.912;8.204;2024-02-26T01:49:19;14.07;;;12.75;;
35022;SDS011;21214;44.912;8.204;2024-02-26T01:51:46;13.95;;;12.75;;
35022;SDS011;21214;44.912;8.204;2024-02-26T01:54:12;13.40;;;12.07;;
35022;SDS011;21214;44.912;8.204;2024-02-26T01:56:37;13.55;;;12.25;;
35022;SDS011;21214;44.912;8.204;2024-02-26T01:59:05;13.52;;;12.13;;
35022;SDS011;21214;44.912;8.204;2024-02-26T02:01:33;13.40;;;12.20;;
35022;SDS011;21214;44.912;8.204;2024-02-26T02:04:00;13.18;;;12.05;;
35022;SDS011;21214;44.912;8.204;2024-02-26T02:06:26;13.90;;;12.52;;
35022;SDS011;21214;44.912;8.204;2024-02-26T02:08:54;12.73;;;11.52;;
35022;SDS011;21214;44.912;8.204;2024-02-26T02:11:20;13.05;;;11.90;;
35022;SDS011;21214;44.912;8.204;2024-02-26T02:13:46;13.10;;;11.90;;
35022;SDS011;21214;44.912;8.204;2024-02-26T02:16:12;12.93;;;11.75;;
35022;SDS011;21214;44.912;8.204;2024-02-26T02:18:38;12.98;;;11.88;;
35022;SDS011;21214;44.912;8.204;2024-02-26T02:21:03;13.15;;;11.85;;
35022;SDS011;21214;44.912;8.204;2024-02-26T02:23:29;12.82;;;11.63;;
35022;SDS011;21214;44.912;8.204;2024-02-26T02:25:55;13.25;;;11.85;;
35022;SDS011;21214;44.912;8.204;2024-02-26T02:28:24;13.27;;;12.00;;
35022;SDS011;21214;44.912;8.204;2024-02-26T02:30:51;11.93;;;10.27;;
35022;SDS011;21214;44.912;8.204;2024-02-26T02:33:17;12.27;;;11.07;;
35022;SDS011;21214;44.912;8.204;2024-02-26T02:35:43;13.00;;;11.70;;
35022;SDS011;21214;44.912;8.204;2024-02-26T02:38:09;11.73;;;10.68;;
35022;SDS011;21214;44.912;8.204;2024-02-26T02:40:34;12.45;;;11.25;;
35022;SDS011;21214;44.912;8.204;2024-02-26T02:43:00;12.05;;;10.95;;
35022;SDS011;21214;44.912;8.204;2024-02-26T02:45:27;12.23;;;11.23;;
35022;SDS011;21214;44.912;8.204;2024-02-26T02:47:53;12.50;;;11.35;;
35022;SDS011;21214;44.912;8.204;2024-02-26T02:50:19;11.95;;;10.95;;
35022;SDS011;21214;44.912;8.204;2024-02-26T02:52:45;11.65;;;10.65;;
35022;SDS011;21214;44.912;8.204;2024-02-26T02:55:12;12.48;;;11.15;;
35022;SDS011;21214;44.912;8.204;2024-02-26T02:57:37;13.30;;;12.10;;
35022;SDS011;21214;44.912;8.204;2024-02-26T03:00:07;12.20;;;11.20;;
35022;SDS011;21214;44.912;8.204;2024-02-26T03:02:33;12.77;;;11.57;;
35022;SDS011;21214;44.912;8.204;2024-02-26T03:05:01;12.75;;;11.65;;
35022;SDS011;21214;44.912;8.204;2024-02-26T03:07:27;12.52;;;11.43;;
35022;SDS011;21214;44.912;8.204;2024-02-26T03:09:53;11.48;;;10.57;;
35022;SDS011;21214;44.912;8.204;2024-02-26T03:12:19;11.88;;;10.88;;
35022;SDS011;21214;44.912;8.204;2024-02-26T03:14:44;11.15;;;10.15;;
35022;SDS011;21214;44.912;8.204;2024-02-26T03:17:10;10.95;;;9.95;;
35022;SDS011;21214;44.912;8.204;2024-02-26T03:19:35;11.55;;;10.52;;
35022;SDS011;21214;44.912;8.204;2024-02-26T03:22:01;11.07;;;10.07;;
35022;SDS011;21214;44.912;8.204;2024-02-26T03:24:27;12.30;;;11.20;;
35022;SDS011;21214;44.912;8.204;2024-02-26T03:26:54;12.02;;;11.02;;
35022;SDS011;21214;44.912;8.204;2024-02-26T03:29:19;11.75;;;10.75;;
35022;SDS011;21214;44.912;8.204;2024-02-26T03:31:45;11.02;;;9.93;;
35022;SDS011;21214;44.912;8.204;2024-02-26T03:34:11;10.57;;;9.63;;
35022;SDS011;21214;44.912;8.204;2024-02-26T03:36:37;9.98;;;9.02;;
35022;SDS011;21214;44.912;8.204;2024-02-26T03:39:03;8.75;;;7.97;;
35022;SDS011;21214;44.912;8.204;2024-02-26T03:41:33;8.90;;;8.07;;
35022;SDS011;21214;44.912;8.204;2024-02-26T03:43:59;8.98;;;8.27;;
35022;SDS011;21214;44.912;8.204;2024-02-26T03:46:24;8.35;;;7.65;;
35022;SDS011;21214;44.912;8.204;2024-02-26T03:48:50;7.13;;;6.53;;
35022;SDS011;21214;44.912;8.204;2024-02-26T03:51:15;6.88;;;6.28;;
35022;SDS011;21214;44.912;8.204;2024-02-26T03:53:41;6.25;;;5.75;;
35022;SDS011;21214;44.912;8.204;2024-02-26T03:56:06;6.85;;;6.25;;
35022;SDS011;21214;44.912;8.204;2024-02-26T03:58:32;7.63;;;7.00;;
35022;SDS011;21214;44.912;8.204;2024-02-26T04:00:58;7.18;;;6.50;;
35022;SDS011;21214;44.912;8.204;2024-02-26T04:03:25;6.85;;;6.35;;
35022;SDS011;21214;44.912;8.204;2024-02-26T04:05:50;7.53;;;6.57;;
35022;SDS011;21214;44.912;8.204;2024-02-26T04:08:16;7.22;;;6.43;;
35022;SDS011;21214;44.912;8.204;2024-02-26T04:10:41;7.80;;;6.90;;
35022;SDS011;21214;44.912;8.204;2024-02-26T04:13:07;7.10;;;6.47;;
35022;SDS011;21214;44.912;8.204;2024-02-26T04:15:33;8.18;;;7.38;;
35022;SDS011;21214;44.912;8.204;2024-02-26T04:17:59;7.55;;;6.85;;
35022;SDS011;21214;44.912;8.204;2024-02-26T04:20:24;7.13;;;6.53;;
35022;SDS011;21214;44.912;8.204;2024-02-26T04:22:50;7.10;;;6.50;;
35022;SDS011;21214;44.912;8.204;2024-02-26T04:25:15;6.68;;;6.07;;
35022;SDS011;21214;44.912;8.204;2024-02-26T04:27:41;6.55;;;5.95;;
35022;SDS011;21214;44.912;8.204;2024-02-26T04:30:07;6.45;;;5.93;;
35022;SDS011;21214;44.912;8.204;2024-02-26T04:32:33;6.60;;;6.10;;
35022;SDS011;21214;44.912;8.204;2024-02-26T04:35:00;6.75;;;6.15;;
35022;SDS011;21214;44.912;8.204;2024-02-26T04:37:26;5.93;;;5.43;;
35022;SDS011;21214;44.912;8.204;2024-02-26T04:39:59;9.07;;;6.40;;
35022;SDS011;21214;44.912;8.204;2024-02-26T04:42:25;6.25;;;5.75;;
35022;SDS011;21214;44.912;8.204;2024-02-26T04:44:50;6.10;;;5.60;;
35022;SDS011;21214;44.912;8.204;2024-02-26T04:47:16;6.30;;;5.57;;
35022;SDS011;21214;44.912;8.204;2024-02-26T04:49:41;7.20;;;5.93;;
35022;SDS011;21214;44.912;8.204;2024-02-26T04:52:07;5.85;;;5.35;;
35022;SDS011;21214;44.912;8.204;2024-02-26T04:54:33;5.68;;;5.25;;
35022;SDS011;21214;44.912;8.204;2024-02-26T04:56:58;6.03;;;5.53;;
35022;SDS011;21214;44.912;8.204;2024-02-26T04:59:23;6.18;;;5.63;;
35022;SDS011;21214;44.912;8.204;2024-02-26T05:01:50;6.85;;;5.88;;
35022;SDS011;21214;44.912;8.204;2024-02-26T05:04:18;5.88;;;5.35;;
35022;SDS011;21214;44.912;8.204;2024-02-26T05:06:43;5.90;;;5.45;;
35022;SDS011;21214;44.912;8.204;2024-02-26T05:09:09;6.55;;;5.95;;
35022;SDS011;21214;44.912;8.204;2024-02-26T05:11:35;6.15;;;5.65;;
35022;SDS011;21214;44.912;8.204;2024-02-26T05:14:01;6.57;;;5.78;;
35022;SDS011;21214;44.912;8.204;2024-02-26T05:16:27;6.55;;;6.05;;
35022;SDS011;21214;44.912;8.204;2024-02-26T05:18:52;6.95;;;6.25;;
35022;SDS011;21214;44.912;8.204;2024-02-26T05:21:18;6.75;;;6.20;;
35022;SDS011;21214;44.912;8.204;2024-02-26T05:23:43;6.68;;;6.07;;
35022;SDS011;21214;44.912;8.204;2024-02-26T05:26:10;6.25;;;5.75;;
35022;SDS011;21214;44.912;8.204;2024-02-26T05:28:36;6.82;;;6.22;;
35022;SDS011;21214;44.912;8.204;2024-02-26T05:31:04;7.18;;;6.57;;
35022;SDS011;21214;44.912;8.204;2024-02-26T05:33:30;7.10;;;6.32;;
35022;SDS011;21214;44.912;8.204;2024-02-26T05:35:55;7.07;;;6.47;;
35022;SDS011;21214;44.912;8.204;2024-02-26T05:38:21;6.88;;;6.30;;
35022;SDS011;21214;44.912;8.204;2024-02-26T05:40:46;7.07;;;6.40;;
35022;SDS011;21214;44.912;8.204;2024-02-26T05:43:12;7.53;;;6.63;;
35022;SDS011;21214;44.912;8.204;2024-02-26T05:45:40;7.45;;;6.85;;
35022;SDS011;21214;44.912;8.204;2024-02-26T05:48:06;7.25;;;6.55;;
35022;SDS011;21214;44.912;8.204;2024-02-26T05:50:32;7.30;;;6.65;;
35022;SDS011;21214;44.912;8.204;2024-02-26T05:52:58;7.55;;;6.88;;
35022;SDS011;21214;44.912;8.204;2024-02-26T05:55:23;7.88;;;6.85;;
35022;SDS011;21214;44.912;8.204;2024-02-26T05:57:49;7.63;;;7.05;;
35022;SDS011;21214;44.912;8.204;2024-02-26T06:00:14;7.43;;;6.82;;
35022;SDS011;21214;44.912;8.204;2024-02-26T06:02:40;7.88;;;7.28;;
35022;SDS011;21214;44.912;8.204;2024-02-26T06:05:06;8.38;;;7.68;;
35022;SDS011;21214;44.912;8.204;2024-02-26T06:07:34;8.73;;;8.02;;
35022;SDS011;21214;44.912;8.204;2024-02-26T06:10:00;8.20;;;7.50;;
35022;SDS011;21214;44.912;8.204;2024-02-26T06:12:25;8.98;;;8.25;;
35022;SDS011;21214;44.912;8.204;2024-02-26T06:14:53;8.63;;;7.93;;
35022;SDS011;21214;44.912;8.204;2024-02-26T06:17:19;9.35;;;8.65;;
35022;SDS011;21214;44.912;8.204;2024-02-26T06:19:44;9.07;;;8.38;;
35022;SDS011;21214;44.912;8.204;2024-02-26T06:22:10;10.70;;;9.70;;
35022;SDS011;21214;44.912;8.204;2024-02-26T06:24:35;10.18;;;9.38;;
35022;SDS011;21214;44.912;8.204;2024-02-26T06:27:02;10.98;;;9.98;;
35022;SDS011;21214;44.912;8.204;2024-02-26T06:29:27;10.52;;;9.73;;
35022;SDS011;21214;44.912;8.204;2024-02-26T06:31:54;10.90;;;9.90;;
35022;SDS011;21214;44.912;8.204;2024-02-26T06:34:21;11.25;;;10.25;;
35022;SDS011;21214;44.912;8.204;2024-02-26T06:36:46;11.45;;;10.40;;
35022;SDS011;21214;44.912;8.204;2024-02-26T06:39:12;12.30;;;11.02;;
35022;SDS011;21214;44.912;8.204;2024-02-26T06:41:38;12.85;;;11.70;;
35022;SDS011;21214;44.912;8.204;2024-02-26T06:44:04;12.38;;;11.25;;
35022;SDS011;21214;44.912;8.204;2024-02-26T06:46:31;12.65;;;11.48;;
35022;SDS011;21214;44.912;8.204;2024-02-26T06:48:56;11.52;;;10.52;;
35022;SDS011;21214;44.912;8.204;2024-02-26T06:51:22;11.88;;;10.75;;
35022;SDS011;21214;44.912;8.204;2024-02-26T06:53:47;11.75;;;10.75;;
35022;SDS011;21214;44.912;8.204;2024-02-26T06:56:14;11.93;;;10.93;;
35022;SDS011;21214;44.912;8.204;2024-02-26T06:58:39;11.45;;;10.45;;
35022;SDS011;21214;44.912;8.204;2024-02-26T07:01:05;11.43;;;10.50;;
35022;SDS011;21214;44.912;8.204;2024-02-26T07:03:30;11.88;;;10.88;;
35022;SDS011;21214;44.912;8.204;2024-02-26T07:05:55;10.98;;;10.07;;
35022;SDS011;21214;44.912;8.204;2024-02-26T07:08:22;10.80;;;9.95;;
35022;SDS011;21214;44.912;8.204;2024-02-26T07:10:47;9.95;;;9.15;;
35022;SDS011;21214;44.912;8.204;2024-02-26T07:13:13;10.75;;;9.85;;
35022;SDS011;21214;44.912;8.204;2024-02-26T07:15:38;11.23;;;10.27;;
35022;SDS011;21214;44.912;8.204;2024-02-26T07:18:04;11.73;;;10.73;;
35022;SDS011;21214;44.912;8.204;2024-02-26T07:20:29;10.38;;;9.50;;
35022;SDS011;21214;44.912;8.204;2024-02-26T07:22:55;11.35;;;10.13;;
35022;SDS011;21214;44.912;8.204;2024-02-26T07:25:21;12.02;;;10.93;;
35022;SDS011;21214;44.912;8.204;2024-02-26T07:27:47;10.05;;;9.27;;
35022;SDS011;21214;44.912;8.204;2024-02-26T07:30:12;10.60;;;9.75;;
35022;SDS011;21214;44.912;8.204;2024-02-26T07:32:38;9.63;;;8.82;;
35022;SDS011;21214;44.912;8.204;2024-02-26T07:35:04;10.38;;;9.45;;
35022;SDS011;21214;44.912;8.204;2024-02-26T07:37:30;9.55;;;8.68;;
35022;SDS011;21214;44.912;8.204;2024-02-26T07:39:56;8.85;;;8.10;;
35022;SDS011;21214;44.912;8.204;2024-02-26T07:42:21;7.68;;;7.18;;
35022;SDS011;21214;44.912;8.204;2024-02-26T07:44:46;7.72;;;7.13;;
35022;SDS011;21214;44.912;8.204;2024-02-26T07:47:12;8.25;;;7.63;;
35022;SDS011;21214;44.912;8.204;2024-02-26T07:49:39;7.50;;;6.93;;
35022;SDS011;21214;44.912;8.204;2024-02-26T07:52:05;8.07;;;7.47;;
35022;SDS011;21214;44.912;8.204;2024-02-26T07:54:30;8.27;;;7.68;;
35022;SDS011;21214;44.912;8.204;2024-02-26T07:56:56;7.80;;;7.20;;
35022;SDS011;21214;44.912;8.204;2024-02-26T07:59:21;8.15;;;7.55;;
35022;SDS011;21214;44.912;8.204;2024-02-26T08:01:52;9.07;;;8.30;;
35022;SDS011;21214;44.912;8.204;2024-02-26T08:04:18;7.63;;;7.13;;
35022;SDS011;21214;44.912;8.204;2024-02-26T08:06:43;8.60;;;7.93;;
35022;SDS011;21214;44.912;8.204;2024-02-26T08:09:08;10.15;;;9.15;;
35022;SDS011;21214;44.912;8.204;2024-02-26T08:11:34;9.13;;;8.35;;
35022;SDS011;21214;44.912;8.204;2024-02-26T08:14:03;9.00;;;8.30;;
35022;SDS011;21214;44.912;8.204;2024-02-26T08:16:30;9.90;;;8.93;;
35022;SDS011;21214;44.912;8.204;2024-02-26T08:18:56;9.18;;;8.48;;
35022;SDS011;21214;44.912;8.204;2024-02-26T08:21:21;10.57;;;9.65;;
35022;SDS011;21214;44.912;8.204;2024-02-26T08:23:47;9.45;;;8.68;;
35022;SDS011;21214;44.912;8.204;2024-02-26T08:26:12;12.05;;;9.15;;
35022;SDS011;21214;44.912;8.204;2024-02-26T08:28:38;11.02;;;9.50;;
35022;SDS011;21214;44.912;8.204;2024-02-26T08:31:03;10.77;;;9.77;;
35022;SDS011;21214;44.912;8.204;2024-02-26T08:33:29;9.75;;;8.98;;
35022;SDS011;21214;44.912;8.204;2024-02-26T08:35:55;10.68;;;9.65;;
35022;SDS011;21214;44.912;8.204;2024-02-26T08:38:21;12.57;;;11.30;;
35022;SDS011;21214;44.912;8.204;2024-02-26T08:40:47;11.55;;;10.63;;
35022;SDS011;21214;44.912;8.204;2024-02-26T08:43:13;10.88;;;10.07;;
35022;SDS011;21214;44.912;8.204;2024-02-26T08:45:39;10.02;;;9.05;;
35022;SDS011;21214;44.912;8.204;2024-02-26T08:48:04;10.35;;;9.45;;
35022;SDS011;21214;44.912;8.204;2024-02-26T08:50:30;10.50;;;9.50;;
35022;SDS011;21214;44.912;8.204;2024-02-26T08:52:56;10.60;;;9.70;;
35022;SDS011;21214;44.912;8.204;2024-02-26T08:55:26;12.30;;;11.23;;
35022;SDS011;21214;44.912;8.204;2024-02-26T08:57:52;17.40;;;13.65;;
35022;SDS011;21214;44.912;8.204;2024-02-26T09:00:17;12.13;;;10.88;;
35022;SDS011;21214;44.912;8.204;2024-02-26T09:02:45;11.18;;;10.20;;
35022;SDS011;21214;44.912;8.204;2024-02-26T09:05:12;10.57;;;9.68;;
35022;SDS011;21214;44.912;8.204;2024-02-26T09:07:37;9.52;;;8.73;;
35022;SDS011;21214;44.912;8.204;2024-02-26T09:10:03;9.82;;;9.02;;
35022;SDS011;21214;44.912;8.204;2024-02-26T09:12:30;9.98;;;9.07;;
35022;SDS011;21214;44.912;8.204;2024-02-26T09:14:55;8.98;;;8.27;;
35022;SDS011;21214;44.912;8.204;2024-02-26T09:17:22;10.30;;;9.40;;
35022;SDS011;21214;44.912;8.204;2024-02-26T09:19:48;9.98;;;9.07;;
35022;SDS011;21214;44.912;8.204;2024-02-26T09:22:13;10.43;;;9.50;;
35022;SDS011;21214;44.912;8.204;2024-02-26T09:24:38;10.55;;;9.50;;
35022;SDS011;21214;44.912;8.204;2024-02-26T09:27:04;12.80;;;10.82;;
35022;SDS011;21214;44.912;8.204;2024-02-26T09:29:29;11.23;;;10.32;;
35022;SDS011;21214;44.912;8.204;2024-02-26T09:31:57;10.70;;;9.70;;
35022;SDS011;21214;44.912;8.204;2024-02-26T09:34:23;11.48;;;10.38;;
35022;SDS011;21214;44.912;8.204;2024-02-26T09:36:49;11.40;;;10.25;;
35022;SDS011;21214;44.912;8.204;2024-02-26T09:39:14;11.55;;;10.55;;
35022;SDS011;21214;44.912;8.204;2024-02-26T09:41:45;11.32;;;10.32;;
35022;SDS011;21214;44.912;8.204;2024-02-26T09:44:11;12.05;;;10.95;;
35022;SDS011;21214;44.912;8.204;2024-02-26T09:46:40;12.37;;;11.13;;
35022;SDS011;21214;44.912;8.204;2024-02-26T09:49:06;12.73;;;11.60;;
35022;SDS011;21214;44.912;8.204;2024-02-26T09:51:33;12.18;;;11.10;;
35022;SDS011;21214;44.912;8.204;2024-02-26T09:53:59;12.45;;;11.43;;
35022;SDS011;21214;44.912;8.204;2024-02-26T09:56:26;11.98;;;11.07;;
35022;SDS011;21214;44.912;8.204;2024-02-26T09:58:52;12.55;;;11.50;;
35022;SDS011;21214;44.912;8.204;2024-02-26T10:01:19;12.60;;;11.45;;
35022;SDS011;21214;44.912;8.204;2024-02-26T10:03:48;13.52;;;12.45;;
35022;SDS011;21214;44.912;8.204;2024-02-26T10:06:20;12.15;;;11.20;;
35022;SDS011;21214;44.912;8.204;2024-02-26T10:08:46;11.18;;;10.20;;
35022;SDS011;21214;44.912;8.204;2024-02-26T10:11:13;10.13;;;9.23;;
35022;SDS011;21214;44.912;8.204;2024-02-26T10:13:40;10.63;;;9.82;;
35022;SDS011;21214;44.912;8.204;2024-02-26T10:16:06;11.27;;;10.38;;
35022;SDS011;21214;44.912;8.204;2024-02-26T10:18:48;10.48;;;9.68;;
35022;SDS011;21214;44.912;8.204;2024-02-26T10:21:18;10.73;;;9.70;;
35022;SDS011;21214;44.912;8.204;2024-02-26T10:23:45;10.23;;;9.43;;
35022;SDS011;21214;44.912;8.204;2024-02-26T10:26:12;10.68;;;9.75;;
35022;SDS011;21214;44.912;8.204;2024-02-26T10:28:42;9.35;;;8.73;;
35022;SDS011;21214;44.912;8.204;2024-02-26T10:31:09;8.80;;;8.00;;
35022;SDS011;21214;44.912;8.204;2024-02-26T10:33:35;8.70;;;8.00;;
35022;SDS011;21214;44.912;8.204;2024-02-26T10:36:02;8.60;;;7.90;;
35022;SDS011;21214;44.912;8.204;2024-02-26T10:38:29;7.43;;;6.82;;
35022;SDS011;21214;44.912;8.204;2024-02-26T10:40:55;7.10;;;6.50;;
35022;SDS011;21214;44.912;8.204;2024-02-26T10:43:21;6.57;;;6.13;;
35022;SDS011;21214;44.912;8.204;2024-02-26T10:45:46;7.07;;;6.57;;
35022;SDS011;21214;44.912;8.204;2024-02-26T10:48:15;7.47;;;6.72;;
35022;SDS011;21214;44.912;8.204;2024-02-26T10:50:42;7.22;;;6.72;;
35022;SDS011;21214;44.912;8.204;2024-02-26T10:53:16;6.30;;;5.80;;
35022;SDS011;21214;44.912;8.204;2024-02-26T10:55:43;6.82;;;6.32;;
35022;SDS011;21214;44.912;8.204;2024-02-26T11:00:39;5.65;;;5.25;;
35022;SDS011;21214;44.912;8.204;2024-02-26T11:03:05;5.63;;;5.20;;
35022;SDS011;21214;44.912;8.204;2024-02-26T11:05:34;5.30;;;4.90;;
35022;SDS011;21214;44.912;8.204;2024-02-26T11:08:01;3.28;;;3.08;;
35022;SDS011;21214;44.912;8.204;2024-02-26T11:10:28;3.97;;;3.67;;
35022;SDS011;21214;44.912;8.204;2024-02-26T11:12:55;4.43;;;4.13;;
35022;SDS011;21214;44.912;8.204;2024-02-26T11:15:23;4.72;;;4.38;;
35022;SDS011;21214;44.912;8.204;2024-02-26T11:17:49;3.78;;;3.47;;
35022;SDS011;21214;44.912;8.204;2024-02-26T11:20:17;4.70;;;4.40;;
35022;SDS011;21214;44.912;8.204;2024-02-26T11:22:47;4.38;;;4.00;;
35022;SDS011;21214;44.912;8.204;2024-02-26T11:25:13;4.50;;;4.18;;
35022;SDS011;21214;44.912;8.204;2024-02-26T11:27:40;3.67;;;3.35;;
35022;SDS011;21214;44.912;8.204;2024-02-26T11:30:13;3.45;;;3.15;;
35022;SDS011;21214;44.912;8.204;2024-02-26T11:32:43;3.17;;;2.97;;
35022;SDS011;21214;44.912;8.204;2024-02-26T11:35:10;3.03;;;2.83;;
35022;SDS011;21214;44.912;8.204;2024-02-26T11:37:38;2.70;;;2.50;;
35022;SDS011;21214;44.912;8.204;2024-02-26T11:40:04;4.18;;;2.42;;
35022;SDS011;21214;44.912;8.204;2024-02-26T11:42:36;3.25;;;3.03;;
35022;SDS011;21214;44.912;8.204;2024-02-26T11:48:15;2.67;;;2.47;;
35022;SDS011;21214;44.912;8.204;2024-02-26T11:50:46;3.00;;;2.30;;
35022;SDS011;21214;44.912;8.204;2024-02-26T11:58:41;2.95;;;2.75;;
35022;SDS011;21214;44.912;8.204;2024-02-26T12:04:08;2.67;;;2.47;;
35022;SDS011;21214;44.912;8.204;2024-02-26T12:06:42;2.70;;;2.50;;
35022;SDS011;21214;44.912;8.204;2024-02-26T12:09:31;2.92;;;2.65;;
35022;SDS011;21214;44.912;8.204;2024-02-26T12:12:10;4.30;;;2.58;;
35022;SDS011;21214;44.912;8.204;2024-02-26T12:14:39;3.05;;;2.83;;
35022;SDS011;21214;44.912;8.204;2024-02-26T12:17:06;2.78;;;2.20;;
35022;SDS011;21214;44.912;8.204;2024-02-26T12:19:34;2.50;;;1.65;;
35022;SDS011;21214;44.912;8.204;2024-02-26T12:22:01;1.92;;;1.83;;
35022;SDS011;21214;44.912;8.204;2024-02-26T12:24:27;2.13;;;1.60;;
35022;SDS011;21214;44.912;8.204;2024-02-26T12:26:53;1.88;;;1.77;;
35022;SDS011;21214;44.912;8.204;2024-02-26T12:29:19;1.70;;;1.60;;
35022;SDS011;21214;44.912;8.204;2024-02-26T12:31:44;1.90;;;1.80;;
35022;SDS011;21214;44.912;8.204;2024-02-26T12:34:10;1.58;;;1.48;;
35022;SDS011;21214;44.912;8.204;2024-02-26T12:36:36;1.85;;;1.75;;
35022;SDS011;21214;44.912;8.204;2024-02-26T12:39:02;1.90;;;1.80;;
35022;SDS011;21214;44.912;8.204;2024-02-26T12:41:28;1.90;;;1.80;;
35022;SDS011;21214;44.912;8.204;2024-02-26T12:43:55;1.85;;;1.75;;
35022;SDS011;21214;44.912;8.204;2024-02-26T12:46:21;1.67;;;1.58;;
35022;SDS011;21214;44.912;8.204;2024-02-26T12:48:47;2.15;;;2.00;;
35022;SDS011;21214;44.912;8.204;2024-02-26T12:51:14;1.80;;;1.70;;
35022;SDS011;21214;44.912;8.204;2024-02-26T12:53:41;1.65;;;1.55;;
35022;SDS011;21214;44.912;8.204;2024-02-26T12:56:09;1.80;;;1.70;;
35022;SDS011;21214;44.912;8.204;2024-02-26T12:58:35;2.10;;;2.00;;
35022;SDS011;21214;44.912;8.204;2024-02-26T13:01:04;2.22;;;2.08;;
35022;SDS011;21214;44.912;8.204;2024-02-26T13:03:30;2.25;;;2.05;;
35022;SDS011;21214;44.912;8.204;2024-02-26T13:05:58;2.08;;;1.98;;
35022;SDS011;21214;44.912;8.204;2024-02-26T13:08:24;1.58;;;1.48;;
35022;SDS011;21214;44.912;8.204;2024-02-26T13:10:50;1.58;;;1.48;;
35022;SDS011;21214;44.912;8.204;2024-02-26T13:13:18;1.48;;;1.48;;
35022;SDS011;21214;44.912;8.204;2024-02-26T13:15:45;1.85;;;1.75;;
35022;SDS011;21214;44.912;8.204;2024-02-26T13:18:11;3.72;;;1.95;;
35022;SDS011;21214;44.912;8.204;2024-02-26T13:20:38;1.75;;;1.65;;
35022;SDS011;21214;44.912;8.204;2024-02-26T13:23:07;1.60;;;1.50;;
35022;SDS011;21214;44.912;8.204;2024-02-26T13:25:35;1.77;;;1.67;;
35022;SDS011;21214;44.912;8.204;2024-02-26T13:28:05;1.75;;;1.65;;
35022;SDS011;21214;44.912;8.204;2024-02-26T13:30:35;1.65;;;1.55;;
35022;SDS011;21214;44.912;8.204;2024-02-26T13:33:08;1.70;;;1.60;;
35022;SDS011;21214;44.912;8.204;2024-02-26T13:35:35;1.80;;;1.70;;
35022;SDS011;21214;44.912;8.204;2024-02-26T13:38:01;1.80;;;1.70;;
35022;SDS011;21214;44.912;8.204;2024-02-26T13:40:27;2.25;;;2.00;;
35022;SDS011;21214;44.912;8.204;2024-02-26T13:42:54;1.60;;;1.50;;
35022;SDS011;21214;44.912;8.204;2024-02-26T13:45:19;1.75;;;1.65;;
35022;SDS011;21214;44.912;8.204;2024-02-26T13:47:45;2.83;;;1.50;;
35022;SDS011;21214;44.912;8.204;2024-02-26T13:50:10;1.80;;;1.70;;
35022;SDS011;21214;44.912;8.204;2024-02-26T13:52:36;1.48;;;1.38;;
35022;SDS011;21214;44.912;8.204;2024-02-26T13:55:03;1.70;;;1.60;;
35022;SDS011;21214;44.912;8.204;2024-02-26T13:57:28;1.50;;;1.40;;
35022;SDS011;21214;44.912;8.204;2024-02-26T13:59:54;1.40;;;1.40;;
35022;SDS011;21214;44.912;8.204;2024-02-26T14:02:20;1.40;;;1.38;;
35022;SDS011;21214;44.912;8.204;2024-02-26T14:04:46;1.48;;;1.40;;
35022;SDS011;21214;44.912;8.204;2024-02-26T14:07:12;1.80;;;1.70;;
35022;SDS011;21214;44.912;8.204;2024-02-26T14:09:38;1.45;;;1.35;;
35022;SDS011;21214;44.912;8.204;2024-02-26T14:12:03;1.77;;;1.50;;
35022;SDS011;21214;44.912;8.204;2024-02-26T14:14:29;1.45;;;1.35;;
35022;SDS011;21214;44.912;8.204;2024-02-26T14:16:58;1.42;;;1.40;;
35022;SDS011;21214;44.912;8.204;2024-02-26T14:19:23;1.20;;;1.20;;
35022;SDS011;21214;44.912;8.204;2024-02-26T14:21:49;1.48;;;1.33;;
35022;SDS011;21214;44.912;8.204;2024-02-26T14:24:14;1.60;;;1.50;;
35022;SDS011;21214;44.912;8.204;2024-02-26T14:26:40;1.52;;;1.42;;
35022;SDS011;21214;44.912;8.204;2024-02-26T14:29:06;1.80;;;1.40;;
35022;SDS011;21214;44.912;8.204;2024-02-26T14:31:32;1.40;;;1.30;;
35022;SDS011;21214;44.912;8.204;2024-02-26T14:33:58;1.20;;;1.20;;
35022;SDS011;21214;44.912;8.204;2024-02-26T14:36:23;1.10;;;1.10;;
35022;SDS011;21214;44.912;8.204;2024-02-26T14:38:50;1.70;;;1.60;;
35022;SDS011;21214;44.912;8.204;2024-02-26T14:41:16;1.15;;;1.15;;
35022;SDS011;21214;44.912;8.204;2024-02-26T14:43:41;1.40;;;1.38;;
35022;SDS011;21214;44.912;8.204;2024-02-26T14:46:07;1.30;;;1.30;;